Time;durP1;ratioP1;P1;durP2;ratioP2;P2;SDS_P1;SDS_P2;PMS_P1;PMS_P2;Temp;Humidity;BMP_temperature;BMP_pressure;BME280_temperature;BME280_humidity;BME280_pressure;Samples;Min_cycle;Max_cycle;Signal;HPM_P1;HPM_P2
2021/12/01 00:00:27;;;;;;;0.47;0.40;;;14.30;99.90;;;14.46;57.25;100001.19;4990492;27;96955;-41
2021/12/01 00:02:55;;;;;;;0.20;0.20;;;14.40;99.90;;;14.30;57.37;100011.00;5014740;27;98555;-43
2021/12/01 00:05:30;;;;;;;0.20;0.20;;;14.40;99.90;;;14.27;57.65;99995.28;5013497;27;99186;-40
2021/12/01 00:07:57;;;;;;;0.83;0.20;;;14.30;99.90;;;14.33;57.09;99986.13;4997487;27;99241;-39
2021/12/01 00:10:27;;;;;;;0.30;0.20;;;14.20;99.90;;;14.47;55.59;99987.00;4995382;27;96944;-39
2021/12/01 00:12:54;;;;;;;0.87;0.10;;;14.30;99.90;;;14.39;56.53;99986.59;4995753;27;97553;-42
2021/12/01 00:15:21;;;;;;;0.23;0.20;;;14.30;99.90;;;14.53;55.50;99991.06;4994492;27;100369;-40
2021/12/01 00:17:49;;;;;;;0.90;0.30;;;14.40;99.90;;;14.61;55.70;99982.59;4989544;27;98471;-41
2021/12/01 00:20:18;;;;;;;0.20;0.20;;;14.50;99.90;;;14.47;56.95;99978.19;4987054;27;97588;-40
2021/12/01 00:22:44;;;;;;;0.30;0.20;;;14.50;99.90;;;14.50;56.69;99964.72;4993579;27;98717;-39
2021/12/01 00:25:14;;;;;;;0.47;0.30;;;14.40;99.90;;;14.48;56.68;99962.19;5003392;27;99811;-39
2021/12/01 00:27:42;;;;;;;0.30;0.20;;;14.50;99.90;;;14.49;56.02;99963.03;5008447;27;97347;-40
2021/12/01 00:30:09;;;;;;;0.43;0.20;;;14.40;99.90;;;14.40;56.46;99943.19;4991320;27;98784;-41
2021/12/01 00:32:36;;;;;;;0.73;0.30;;;14.40;99.90;;;14.57;55.35;99950.13;4986030;27;99381;-39
2021/12/01 00:35:08;;;;;;;0.20;0.20;;;14.50;99.90;;;14.69;54.65;99944.03;5009049;27;99608;-45
2021/12/01 00:37:36;;;;;;;0.30;0.20;;;14.60;99.90;;;14.53;56.34;99944.16;5011739;27;97519;-41
2021/12/01 00:40:04;;;;;;;0.20;0.20;;;14.50;99.90;;;14.58;55.56;99944.69;5013285;27;97494;-39
2021/12/01 00:42:30;;;;;;;0.10;0.10;;;14.50;99.90;;;14.68;55.21;99930.84;5008754;27;96919;-40
2021/12/01 00:45:00;;;;;;;0.60;0.30;;;14.60;99.90;;;14.49;56.13;99924.06;5000193;27;99425;-41
2021/12/01 00:47:44;;;;;;;0.50;0.30;;;14.40;99.90;;;14.44;55.38;99915.53;5019748;27;98350;-41
2021/12/01 00:50:19;;;;;;;0.90;0.30;;;14.40;99.90;;;14.52;55.58;99905.31;5011577;27;97082;-39
2021/12/01 00:52:45;;;;;;;0.23;0.20;;;14.50;99.90;;;14.52;55.72;99904.44;5024138;27;97068;-42
2021/12/01 00:55:10;;;;;;;0.70;0.30;;;14.50;99.90;;;14.37;55.90;99900.94;5027561;27;99425;-41
2021/12/01 00:57:36;;;;;;;0.50;0.30;;;14.40;99.90;;;14.59;55.49;99898.63;5015097;27;98355;-40
2021/12/01 01:00:08;;;;;;;0.50;0.20;;;14.50;99.90;;;14.49;55.88;99883.44;5028254;27;97604;-44
2021/12/01 01:02:34;;;;;;;0.30;0.30;;;14.40;99.90;;;14.49;55.26;99894.03;5031854;27;97396;-41
2021/12/01 01:05:00;;;;;;;0.50;0.40;;;14.30;99.90;;;14.44;55.49;99883.69;5012668;27;97294;-39
2021/12/01 01:07:26;;;;;;;1.20;0.47;;;14.30;99.90;;;14.38;56.57;99876.09;5013749;27;99170;-41
2021/12/01 01:09:53;;;;;;;0.63;0.20;;;14.20;99.90;;;14.40;55.60;99879.50;5011279;27;97445;-40
2021/12/01 01:18:06;;;;;;;0.30;0.20;;;14.40;99.90;;;14.62;54.75;99852.50;5018326;27;101011;-39
2021/12/01 01:20:33;;;;;;;1.83;0.50;;;14.50;99.90;;;14.37;55.98;99842.56;5006725;27;97679;-39
2021/12/01 01:22:59;;;;;;;0.47;0.47;;;14.40;99.90;;;14.38;55.86;99848.72;5016351;27;97334;-40
2021/12/01 01:25:25;;;;;;;0.37;0.37;;;14.30;99.90;;;14.30;56.78;99841.25;5008706;27;97678;-40
2021/12/01 01:27:51;;;;;;;1.20;0.40;;;14.20;99.90;;;14.41;55.30;99829.94;5015630;27;99519;-40
2021/12/01 01:30:17;;;;;;;0.40;0.30;;;14.30;99.90;;;14.37;55.34;99845.22;5026736;27;96816;-40
2021/12/01 01:32:43;;;;;;;0.80;0.20;;;14.20;99.90;;;14.43;55.26;99820.09;5012808;27;98771;-41
2021/12/01 01:35:09;;;;;;;0.20;0.10;;;14.40;99.90;;;14.34;55.90;99831.31;5012960;27;98581;-41
2021/12/01 01:37:35;;;;;;;0.60;0.30;;;14.30;99.90;;;14.40;55.67;99820.28;5015258;27;97328;-40
2021/12/01 01:40:01;;;;;;;0.43;0.20;;;14.30;99.90;;;14.42;54.59;99831.66;5021217;27;97029;-42
2021/12/01 01:42:27;;;;;;;0.20;0.20;;;14.30;99.90;;;14.50;54.93;99824.94;4995241;27;97130;-40
2021/12/01 01:44:53;;;;;;;0.30;0.30;;;14.40;99.90;;;14.45;54.96;99816.41;5019627;27;99018;-39
2021/12/01 01:47:20;;;;;;;0.97;0.20;;;14.40;99.90;;;14.30;55.62;99820.03;5011705;27;97298;-39
2021/12/01 01:49:55;;;;;;;0.53;0.20;;;14.30;99.90;;;14.25;55.59;99827.44;5029766;27;97499;-39
2021/12/01 01:52:21;;;;;;;0.40;0.40;;;14.20;99.90;;;14.13;56.32;99809.66;5025065;27;97867;-40
2021/12/01 01:54:47;;;;;;;0.20;0.20;;;14.10;99.90;;;14.28;55.38;99811.31;5016267;27;99859;-39
2021/12/01 01:57:13;;;;;;;1.27;0.30;;;14.20;99.90;;;14.11;55.63;99812.41;5005733;27;97958;-39
2021/12/01 01:59:39;;;;;;;0.60;0.40;;;14.10;99.90;;;13.95;56.20;99804.56;5014508;27;97517;-40
2021/12/01 02:02:05;;;;;;;0.43;0.30;;;14.00;99.90;;;14.17;55.58;99809.34;5014063;27;96901;-42
2021/12/01 02:04:34;;;;;;;1.03;0.60;;;14.00;99.90;;;13.98;56.16;99790.25;5030379;27;100342;-41
2021/12/01 02:07:03;;;;;;;0.47;0.47;;;13.90;99.90;;;14.04;56.09;99804.94;5014699;27;98174;-40
2021/12/01 02:09:29;;;;;;;0.43;0.43;;;14.00;99.90;;;14.21;55.56;99778.19;5008556;27;97318;-40
2021/12/01 02:12:02;;;;;;;0.57;0.50;;;14.10;99.90;;;14.25;55.33;99774.38;5037253;27;97240;-40
2021/12/01 02:14:29;;;;;;;0.50;0.50;;;14.10;99.90;;;14.12;56.11;99768.16;5010762;27;104374;-39
2021/12/01 02:16:58;;;;;;;0.60;0.50;;;14.00;99.90;;;14.09;55.72;99763.91;5022813;27;99199;-41
2021/12/01 02:19:24;;;;;;;1.20;0.70;;;14.10;99.90;;;14.00;55.79;99762.69;5011596;27;96897;-40
2021/12/01 02:21:51;;;;;;;1.13;0.37;;;13.90;99.90;;;14.02;56.06;99745.84;5000581;28;96887;-39
2021/12/01 02:24:20;;;;;;;1.00;0.70;;;13.90;99.90;;;13.92;55.63;99730.53;5009689;27;96780;-39
2021/12/01 02:26:49;;;;;;;1.27;0.90;;;13.90;99.90;;;13.96;56.41;99739.13;5038602;27;97212;-39
2021/12/01 02:29:22;;;;;;;1.83;0.83;;;13.90;99.90;;;13.78;56.07;99729.72;5011163;27;96819;-39
2021/12/01 02:31:50;;;;;;;0.73;0.70;;;13.80;99.90;;;13.80;56.00;99731.31;5015374;27;96895;-39
2021/12/01 02:34:22;;;;;;;0.90;0.80;;;13.80;99.90;;;13.88;56.25;99712.25;5013613;27;97229;-40
2021/12/01 02:36:55;;;;;;;0.90;0.80;;;13.80;99.90;;;13.92;55.77;99697.88;5007225;27;96926;-39
2021/12/01 02:39:22;;;;;;;0.90;0.87;;;13.90;99.90;;;13.88;55.66;99697.19;5009029;27;97530;-41
2021/12/01 02:41:53;;;;;;;0.93;0.73;;;13.80;99.90;;;13.85;56.51;99692.09;5013797;27;97443;-39
2021/12/01 02:44:21;;;;;;;1.33;0.80;;;13.80;99.90;;;13.74;55.96;99694.56;5007948;27;98623;-39
2021/12/01 02:46:47;;;;;;;2.20;1.00;;;13.80;99.90;;;13.80;56.17;99682.75;5016742;27;96911;-39
2021/12/01 02:49:13;;;;;;;0.80;0.80;;;13.80;99.90;;;13.82;56.33;99668.44;5012757;27;97206;-40
2021/12/01 02:51:40;;;;;;;1.13;0.83;;;13.80;99.90;;;13.78;56.03;99669.59;5000828;28;97417;-41
2021/12/01 02:54:07;;;;;;;1.03;0.80;;;13.70;99.90;;;13.76;56.05;99660.91;5013220;27;97392;-39
2021/12/01 02:56:36;;;;;;;0.70;0.70;;;13.70;99.90;;;14.01;55.50;99638.94;5026514;27;97529;-39
2021/12/01 02:59:05;;;;;;;1.03;0.87;;;13.80;99.90;;;13.93;55.28;99647.41;5015902;27;96947;-41
2021/12/01 03:01:31;;;;;;;2.43;0.97;;;13.90;99.90;;;13.98;55.61;99647.09;5029412;27;96992;-41
2021/12/01 03:04:00;;;;;;;0.80;0.60;;;13.90;99.90;;;14.15;54.81;99644.16;5014770;27;99520;-39
2021/12/01 03:06:27;;;;;;;1.73;0.73;;;14.00;99.90;;;14.15;55.46;99640.66;5009249;27;99365;-41
2021/12/01 03:08:54;;;;;;;1.97;0.57;;;14.00;99.90;;;14.21;55.00;99640.28;5009739;27;97182;-39
2021/12/01 03:11:20;;;;;;;2.27;0.70;;;14.00;99.90;;;14.26;54.92;99638.16;5009972;27;98567;-41
2021/12/01 03:13:46;;;;;;;1.17;0.50;;;14.10;99.90;;;14.37;54.83;99625.03;5018236;27;97550;-39
2021/12/01 03:16:15;;;;;;;0.70;0.70;;;14.20;99.90;;;14.40;54.51;99618.66;5007011;27;104757;-42
2021/12/01 03:18:43;;;;;;;0.70;0.70;;;14.20;99.90;;;14.42;54.35;99622.91;5025294;27;96976;-42
2021/12/01 03:21:11;;;;;;;1.40;0.60;;;14.20;99.90;;;14.35;54.78;99620.78;5014325;27;97035;-42
2021/12/01 03:23:37;;;;;;;0.60;0.50;;;14.20;99.90;;;14.49;54.10;99604.81;5015690;27;97039;-39
2021/12/01 03:26:03;;;;;;;0.80;0.60;;;14.20;99.90;;;14.31;54.33;99606.88;4995977;27;97896;-39
2021/12/01 03:28:29;;;;;;;1.37;0.70;;;14.20;99.90;;;14.21;54.84;99608.47;5024571;27;96742;-41
2021/12/01 03:30:55;;;;;;;1.23;0.73;;;14.00;99.90;;;14.28;54.56;99604.44;5014999;27;96954;-40
2021/12/01 03:33:22;;;;;;;1.13;0.80;;;14.00;99.90;;;14.31;54.64;99601.56;5010804;27;96798;-40
2021/12/01 03:35:51;;;;;;;2.53;1.10;;;14.10;99.90;;;14.15;54.77;99598.25;5013151;27;97782;-39
2021/12/01 03:38:20;;;;;;;0.93;0.60;;;13.90;99.90;;;14.16;54.51;99599.94;5010120;27;96854;-42
2021/12/01 03:40:47;;;;;;;1.13;0.83;;;13.90;99.90;;;14.05;54.97;99591.88;5037335;27;97412;-40
2021/12/01 03:43:13;;;;;;;1.20;1.10;;;13.90;99.90;;;14.03;54.47;99593.75;5009092;27;97371;-40
2021/12/01 03:45:39;;;;;;;1.33;0.97;;;13.90;99.90;;;14.03;54.14;99583.16;5031491;27;98753;-42
2021/12/01 03:48:06;;;;;;;1.20;1.00;;;13.80;99.90;;;14.14;53.88;99591.25;5026868;27;97950;-41
2021/12/01 03:50:32;;;;;;;1.43;1.33;;;14.00;99.90;;;14.03;53.51;99594.59;5012565;27;96849;-41
2021/12/01 03:52:58;;;;;;;1.33;1.23;;;13.90;99.90;;;14.03;54.15;99593.75;5028084;27;99593;-42
2021/12/01 03:55:24;;;;;;;2.27;1.60;;;13.80;99.90;;;13.99;54.05;99587.81;5023960;27;98221;-39
2021/12/01 03:57:50;;;;;;;2.20;1.00;;;13.80;99.90;;;13.94;54.42;99580.16;5003710;27;96833;-41
2021/12/01 04:00:17;;;;;;;1.60;0.77;;;13.80;99.90;;;14.02;54.12;99571.69;5011010;27;96985;-39
2021/12/01 04:02:44;;;;;;;2.33;1.00;;;13.80;99.90;;;14.15;54.60;99566.41;5010786;27;98462;-43
2021/12/01 04:05:11;;;;;;;2.43;1.77;;;13.90;99.90;;;14.06;54.70;99557.31;5010404;27;98108;-40
2021/12/01 04:07:38;;;;;;;2.37;1.67;;;13.80;99.90;;;14.06;53.99;99546.69;5014983;27;97140;-40
2021/12/01 04:10:15;;;;;;;1.47;1.37;;;13.90;99.90;;;13.96;54.08;99542.94;5019942;27;97829;-40
2021/12/01 04:12:42;;;;;;;1.77;1.57;;;13.80;99.90;;;13.96;55.01;99525.25;5009010;27;101577;-39
2021/12/01 04:15:10;;;;;;;2.20;2.00;;;13.80;99.90;;;13.89;54.57;99523.13;5009408;27;99368;-41
2021/12/01 04:17:39;;;;;;;3.10;2.23;;;13.70;99.90;;;13.85;55.21;99511.00;5011207;27;97087;-40
2021/12/01 04:20:06;;;;;;;2.27;2.07;;;13.70;99.90;;;13.84;54.24;99515.47;5017019;27;97254;-40
2021/12/01 04:22:32;;;;;;;2.07;1.63;;;13.70;99.90;;;13.86;55.31;99505.59;4996412;27;102805;-39
2021/12/01 04:24:58;;;;;;;3.67;2.63;;;13.70;99.90;;;13.74;54.20;99498.47;5034711;27;98083;-39
2021/12/01 04:27:24;;;;;;;2.70;2.50;;;13.60;99.90;;;13.88;55.17;99489.59;5010580;27;96959;-39
2021/12/01 04:29:50;;;;;;;2.10;1.90;;;13.70;99.90;;;14.00;53.66;99486.97;5033627;27;97061;-40
2021/12/01 04:32:16;;;;;;;1.50;1.10;;;13.90;99.90;;;14.04;54.78;99478.81;5007986;27;97705;-39
2021/12/01 04:34:42;;;;;;;1.33;1.23;;;13.90;99.90;;;14.00;54.31;99479.00;5015944;27;96857;-39
2021/12/01 04:37:08;;;;;;;2.50;2.07;;;13.80;99.90;;;13.95;54.20;99465.22;5032060;27;97892;-40
2021/12/01 04:39:34;;;;;;;3.23;2.60;;;13.80;99.90;;;13.96;53.77;99451.03;5007619;27;96971;-40
2021/12/01 04:42:05;;;;;;;3.40;2.73;;;13.80;99.90;;;14.08;54.00;99451.13;5018415;27;99352;-40
2021/12/01 04:44:34;;;;;;;3.50;2.77;;;13.90;99.90;;;14.02;54.32;99446.25;5004838;27;102787;-40
2021/12/01 04:47:04;;;;;;;3.73;2.53;;;13.90;99.90;;;14.03;54.64;99430.22;5030138;27;102411;-39
2021/12/01 04:49:39;;;;;;;3.70;2.93;;;13.90;99.90;;;14.03;54.48;99418.78;5007633;27;96985;-41
2021/12/01 04:52:08;;;;;;;3.07;1.90;;;13.90;99.90;;;14.10;54.57;99420.06;5014369;27;102996;-44
2021/12/01 04:54:34;;;;;;;4.40;3.27;;;13.90;99.90;;;14.14;53.97;99421.53;5015039;27;104005;-39
2021/12/01 04:57:05;;;;;;;2.00;1.80;;;13.90;99.90;;;14.12;54.61;99423.44;5013544;27;98927;-41
2021/12/01 04:59:33;;;;;;;2.33;2.13;;;13.90;99.90;;;13.99;54.43;99418.16;5026999;27;97279;-39
2021/12/01 05:02:00;;;;;;;3.53;2.80;;;13.80;99.90;;;13.98;52.79;99406.69;5034356;27;98345;-45
2021/12/01 05:04:26;;;;;;;3.83;2.70;;;13.90;99.90;;;13.88;53.27;99404.78;5007522;27;97488;-39
2021/12/01 05:06:52;;;;;;;3.83;3.00;;;13.70;99.90;;;13.84;53.65;99396.19;5031037;27;96830;-40
2021/12/01 05:09:18;;;;;;;4.60;3.07;;;13.70;99.90;;;13.90;54.80;99395.78;5029574;27;97500;-39
2021/12/01 05:11:44;;;;;;;3.33;2.07;;;13.70;99.90;;;13.88;54.67;99389.72;5016309;27;97775;-42
2021/12/01 05:14:12;;;;;;;6.17;3.83;;;13.70;99.90;;;13.79;53.15;99385.06;5028832;27;100508;-40
2021/12/01 05:16:41;;;;;;;5.93;3.77;;;13.70;99.90;;;13.86;53.25;99383.69;5012248;27;97246;-39
2021/12/01 05:19:08;;;;;;;4.60;3.73;;;13.80;99.90;;;13.62;54.77;99383.59;5016693;27;96936;-47
2021/12/01 05:21:35;;;;;;;2.97;2.67;;;13.60;99.90;;;13.72;54.63;99375.84;5012930;27;97040;-40
2021/12/01 05:24:01;;;;;;;4.63;3.20;;;13.60;99.90;;;13.68;53.54;99369.06;5015411;27;97547;-40
2021/12/01 05:26:28;;;;;;;3.43;2.40;;;13.60;99.90;;;13.81;54.38;99361.97;5005499;27;96992;-39
2021/12/01 05:28:54;;;;;;;4.67;3.37;;;13.70;99.90;;;13.73;53.66;99352.84;5015890;27;96863;-40
2021/12/01 05:31:20;;;;;;;3.77;2.90;;;13.60;99.90;;;13.73;54.30;99343.06;5009489;27;97595;-39
2021/12/01 05:33:46;;;;;;;4.03;3.40;;;13.60;99.90;;;13.58;53.67;99338.84;5014436;27;98792;-41
2021/12/01 05:36:13;;;;;;;4.30;3.30;;;13.60;99.90;;;13.74;54.93;99330.69;5002103;27;98003;-39
2021/12/01 05:38:39;;;;;;;4.93;2.77;;;13.60;99.90;;;13.72;54.41;99324.63;4989607;28;96728;-41
2021/12/01 05:41:05;;;;;;;4.43;3.27;;;13.60;99.90;;;13.55;53.78;99323.16;5011954;27;96900;-41
2021/12/01 05:43:32;;;;;;;3.57;3.07;;;13.50;99.90;;;13.71;53.77;99313.19;5008030;27;102179;-39
2021/12/01 05:45:58;;;;;;;4.23;2.70;;;13.60;99.90;;;13.89;54.24;99311.94;5016171;27;97100;-40
2021/12/01 05:48:24;;;;;;;3.37;2.23;;;13.80;99.90;;;13.77;54.70;99296.88;5009025;27;96756;-39
2021/12/01 05:50:50;;;;;;;2.93;2.03;;;13.70;99.90;;;13.76;55.10;99295.19;5033374;27;98171;-39
2021/12/01 05:53:16;;;;;;;1.40;1.30;;;13.60;99.90;;;13.89;54.86;99277.47;5023102;27;98920;-39
2021/12/01 05:55:42;;;;;;;3.13;1.93;;;13.70;99.90;;;13.97;53.74;99272.47;5008120;27;96938;-39
2021/12/01 05:58:08;;;;;;;3.00;2.00;;;13.80;99.90;;;13.87;53.29;99266.09;5006959;27;97080;-39
2021/12/01 06:00:35;;;;;;;2.77;2.03;;;13.80;99.90;;;13.73;55.42;99242.38;5014735;27;96828;-42
2021/12/01 06:03:00;;;;;;;2.17;1.70;;;13.60;99.90;;;13.60;54.42;99231.00;5012149;27;98006;-39
2021/12/01 06:05:27;;;;;;;2.07;1.83;;;13.50;99.90;;;13.69;54.48;99219.72;5023987;27;97235;-39
2021/12/01 06:07:54;;;;;;;1.97;1.50;;;13.60;99.90;;;13.70;54.25;99202.88;5014748;27;98287;-39
2021/12/01 06:10:19;;;;;;;2.23;2.00;;;13.60;99.90;;;13.26;54.97;99212.13;5016463;27;99393;-39
2021/12/01 06:12:46;;;;;;;2.80;1.60;;;13.40;99.90;;;13.10;56.47;99200.88;5030947;27;97284;-41
2021/12/01 06:15:17;;;;;;;1.83;1.40;;;13.10;99.90;;;13.19;56.94;99183.56;5011263;27;97072;-42
2021/12/01 06:17:44;;;;;;;2.20;1.70;;;13.00;99.90;;;13.35;56.06;99195.63;5034849;27;97095;-41
2021/12/01 06:20:11;;;;;;;1.60;1.50;;;13.30;99.90;;;13.47;54.71;99193.06;5011379;27;97188;-40
2021/12/01 06:22:39;;;;;;;2.27;1.60;;;13.40;99.90;;;13.52;55.90;99189.13;5014685;27;98778;-40
2021/12/01 06:25:06;;;;;;;1.40;1.20;;;13.40;99.90;;;13.68;53.97;99186.22;5013232;27;97227;-42
2021/12/01 06:27:32;;;;;;;1.80;1.30;;;13.60;99.90;;;13.71;55.29;99180.72;5026405;27;97523;-42
2021/12/01 06:29:58;;;;;;;2.43;1.50;;;13.60;99.90;;;13.72;53.95;99179.75;5011515;27;99662;-40
2021/12/01 06:32:23;;;;;;;1.17;1.00;;;13.70;99.90;;;13.74;55.20;99175.19;5009561;27;97495;-41
2021/12/01 06:34:49;;;;;;;1.30;1.20;;;13.60;99.90;;;13.66;53.33;99166.97;5016467;27;97991;-40
2021/12/01 06:37:17;;;;;;;1.80;1.17;;;13.70;99.90;;;13.79;54.82;99165.13;5012480;27;97151;-42
2021/12/01 06:39:45;;;;;;;1.27;0.87;;;13.70;99.90;;;13.76;54.87;99161.84;5007783;27;98681;-42
2021/12/01 06:42:12;;;;;;;1.73;1.40;;;13.70;99.90;;;13.80;53.71;99158.84;5023151;27;100804;-41
2021/12/01 06:44:38;;;;;;;1.00;0.90;;;13.70;99.90;;;13.88;54.37;99150.34;5018865;27;97373;-43
2021/12/01 06:47:05;;;;;;;1.80;1.40;;;13.70;99.90;;;13.85;53.62;99140.81;5032824;27;96742;-42
2021/12/01 06:49:31;;;;;;;1.27;1.00;;;13.80;99.90;;;13.75;53.84;99139.81;5025860;27;97294;-43
2021/12/01 06:51:56;;;;;;;1.10;1.00;;;13.70;99.90;;;13.78;53.79;99133.44;5030698;27;99311;-42
2021/12/01 06:54:22;;;;;;;1.43;1.30;;;13.70;99.90;;;13.36;54.31;99125.81;5013745;27;102689;-43
2021/12/01 06:56:48;;;;;;;1.37;1.27;;;13.30;99.90;;;13.46;53.62;99117.22;5015118;27;97225;-41
2021/12/01 06:59:14;;;;;;;1.33;1.00;;;13.40;99.90;;;13.64;55.03;99118.53;5009259;27;97585;-40
2021/12/01 07:01:40;;;;;;;1.43;1.30;;;13.50;99.90;;;13.53;53.16;99113.16;5013031;27;99881;-41
2021/12/01 07:04:06;;;;;;;3.33;1.57;;;13.50;99.90;;;13.64;53.28;99107.94;5014086;27;96903;-45
2021/12/01 07:06:32;;;;;;;1.90;1.40;;;13.60;99.90;;;13.55;53.29;99116.53;4999703;27;97578;-40
2021/12/01 07:09:01;;;;;;;2.93;1.60;;;13.60;99.90;;;13.79;53.74;99109.47;5019102;27;97332;-41
2021/12/01 07:11:28;;;;;;;2.67;1.70;;;13.70;99.90;;;13.75;53.45;99102.72;5015766;27;97727;-44
2021/12/01 07:13:54;;;;;;;1.93;1.10;;;13.70;99.90;;;13.75;53.16;99093.91;5029390;27;97021;-40
2021/12/01 07:16:20;;;;;;;1.53;1.37;;;13.60;99.90;;;13.65;54.38;99091.09;5021818;27;97555;-40
2021/12/01 07:18:46;;;;;;;3.80;1.80;;;13.50;99.90;;;13.63;53.26;99093.00;5015579;27;98749;-43
2021/12/01 07:21:12;;;;;;;4.10;2.03;;;13.50;99.90;;;13.64;53.24;99092.03;5008257;27;99234;-41
2021/12/01 07:23:38;;;;;;;2.00;1.20;;;13.50;99.90;;;13.68;54.52;99080.25;5016729;27;96830;-42
2021/12/01 07:26:05;;;;;;;2.07;1.60;;;13.50;99.90;;;13.62;53.10;99096.59;5009482;27;97152;-43
2021/12/01 07:28:31;;;;;;;2.10;1.40;;;13.50;99.90;;;13.75;53.34;99086.81;5025571;27;104062;-41
2021/12/01 07:30:58;;;;;;;2.57;1.30;;;13.60;99.90;;;13.75;54.03;99078.03;5015372;27;98104;-40
2021/12/01 07:33:24;;;;;;;1.20;0.90;;;13.60;99.90;;;14.00;54.17;99069.91;5004584;27;97921;-40
2021/12/01 07:35:51;;;;;;;1.50;0.93;;;13.80;99.90;;;13.83;52.17;99073.81;5010722;27;97244;-42
2021/12/01 07:38:17;;;;;;;1.00;0.90;;;13.80;99.90;;;13.87;54.24;99069.97;5017765;27;100168;-45
2021/12/01 07:40:43;;;;;;;1.87;1.07;;;13.70;99.90;;;13.87;53.24;99062.03;5014660;27;96456;-42
2021/12/01 07:43:09;;;;;;;0.80;0.70;;;13.80;99.90;;;13.94;52.37;99065.94;5004605;27;97021;-40
2021/12/01 07:45:35;;;;;;;1.67;0.93;;;13.80;99.90;;;13.88;52.98;99055.75;5018827;27;98094;-40
2021/12/01 07:48:01;;;;;;;0.80;0.60;;;13.80;99.90;;;13.89;53.10;99046.88;5008553;27;99656;-42
2021/12/01 07:50:27;;;;;;;2.23;0.80;;;13.70;99.90;;;13.76;52.93;99048.75;5013490;27;97207;-42
2021/12/01 07:52:53;;;;;;;0.73;0.50;;;13.70;99.90;;;13.66;53.48;99045.09;5027425;27;96911;-40
2021/12/01 07:55:19;;;;;;;1.60;0.40;;;13.60;99.90;;;13.67;53.44;99044.13;5031828;27;97144;-40
2021/12/01 07:57:46;;;;;;;0.80;0.40;;;13.60;99.90;;;13.65;53.07;99043.41;5010870;27;98383;-42
2021/12/01 08:00:14;;;;;;;0.60;0.60;;;13.60;99.90;;;13.83;53.75;99036.72;5009937;27;96827;-41
2021/12/01 08:02:39;;;;;;;1.47;0.33;;;13.70;99.90;;;13.80;52.89;99026.34;5002046;27;97263;-44
2021/12/01 08:05:06;;;;;;;0.90;0.50;;;13.80;99.90;;;13.94;54.09;99017.38;5013455;27;97624;-45
2021/12/01 08:07:35;;;;;;;2.20;0.33;;;13.80;99.90;;;13.75;52.71;99023.22;5010084;27;104401;-41
2021/12/01 08:10:06;;;;;;;0.40;0.40;;;13.70;99.90;;;13.97;52.92;99017.13;5029114;27;99401;-46
2021/12/01 08:12:34;;;;;;;0.67;0.50;;;13.90;99.90;;;13.91;52.54;99007.84;5012699;27;97207;-44
2021/12/01 08:15:01;;;;;;;0.60;0.60;;;13.80;99.90;;;13.88;52.37;99002.75;5014359;27;97496;-44
2021/12/01 08:17:27;;;;;;;0.30;0.30;;;13.90;99.90;;;14.03;52.69;99005.22;5018059;27;98925;-44
2021/12/01 08:19:53;;;;;;;1.07;0.80;;;13.90;99.90;;;13.93;54.09;99005.94;5012399;27;97818;-42
2021/12/01 08:22:18;;;;;;;0.60;0.60;;;13.70;99.90;;;13.80;53.01;99002.50;5008782;27;96976;-42
2021/12/01 08:24:44;;;;;;;2.03;0.83;;;13.80;99.90;;;13.88;52.69;98997.47;5013689;27;97384;-43
2021/12/01 08:27:10;;;;;;;0.67;0.63;;;13.80;99.90;;;13.95;53.19;98998.72;5007912;27;99654;-41
2021/12/01 08:29:36;;;;;;;1.30;0.50;;;13.80;99.90;;;13.94;53.93;98997.03;5012137;27;98179;-42
2021/12/01 08:32:02;;;;;;;0.80;0.70;;;13.80;99.90;;;13.99;53.02;98989.56;5017454;27;99156;-41
2021/12/01 08:34:28;;;;;;;0.70;0.70;;;13.90;99.90;;;14.06;52.64;98989.94;5009170;27;97745;-40
2021/12/01 08:36:55;;;;;;;0.63;0.50;;;14.00;99.90;;;13.96;53.65;98984.50;5031366;27;98740;-40
2021/12/01 08:39:20;;;;;;;1.50;0.50;;;13.80;99.90;;;13.89;53.60;98987.75;5002670;27;97148;-40
2021/12/01 08:41:46;;;;;;;1.60;0.53;;;13.80;99.90;;;13.94;53.30;98986.41;5017426;27;97340;-41
2021/12/01 08:44:13;;;;;;;1.37;0.97;;;13.80;99.90;;;14.17;53.12;98981.16;5006044;27;98106;-41
2021/12/01 08:46:39;;;;;;;1.87;1.10;;;14.00;99.90;;;14.20;52.67;98981.78;4999113;27;98325;-42
2021/12/01 08:49:04;;;;;;;2.93;1.33;;;14.10;99.90;;;14.28;52.47;98979.38;5018095;27;100169;-41
2021/12/01 08:51:31;;;;;;;2.83;1.33;;;14.10;99.90;;;14.20;52.80;98973.00;5031111;27;96932;-44
2021/12/01 08:53:57;;;;;;;0.80;0.70;;;14.20;99.90;;;14.26;52.50;98961.91;5013366;27;97026;-42
2021/12/01 08:56:23;;;;;;;1.00;0.70;;;14.20;99.90;;;14.20;52.43;98959.72;5006841;27;100869;-40
2021/12/01 08:58:49;;;;;;;0.77;0.53;;;14.10;99.90;;;14.22;52.18;98941.88;5030709;27;99078;-43
2021/12/01 09:01:15;;;;;;;1.10;0.67;;;14.10;99.90;;;14.13;52.75;98947.88;5004361;27;97270;-43
2021/12/01 09:03:41;;;;;;;2.50;0.80;;;14.00;99.90;;;14.23;53.33;98944.41;5013300;27;98377;-41
2021/12/01 09:06:07;;;;;;;1.17;0.40;;;14.10;99.90;;;14.26;53.42;98943.31;5007168;27;98048;-45
2021/12/01 09:08:34;;;;;;;0.93;0.60;;;14.20;99.90;;;14.25;53.60;98941.66;4988841;27;101356;-45
2021/12/01 09:11:03;;;;;;;1.37;0.43;;;14.10;99.90;;;14.13;54.17;98939.94;5007387;27;98603;-40
2021/12/01 09:13:31;;;;;;;1.03;0.33;;;14.00;99.90;;;14.09;54.56;98930.53;5009469;27;97279;-43
2021/12/01 09:15:57;;;;;;;0.43;0.20;;;14.00;99.90;;;14.05;55.01;98929.09;5030927;27;97023;-41
2021/12/01 09:18:27;;;;;;;0.30;0.30;;;13.90;99.90;;;14.07;54.66;98922.72;5007353;27;97373;-41
2021/12/01 09:20:53;;;;;;;0.20;0.20;;;13.90;99.90;;;13.92;55.62;98927.38;5008814;27;96894;-40
2021/12/01 09:23:20;;;;;;;0.73;0.40;;;13.80;99.90;;;13.87;55.39;98910.97;5012225;27;96964;-43
2021/12/01 09:25:47;;;;;;;0.97;0.40;;;13.70;99.90;;;13.85;56.68;98907.59;5017121;27;98816;-41
2021/12/01 09:28:22;;;;;;;2.73;0.57;;;13.70;99.90;;;14.02;55.04;98913.41;5008487;27;98691;-42
2021/12/01 09:30:50;;;;;;;0.67;0.50;;;13.80;99.90;;;13.96;55.89;98915.56;5014719;27;96806;-43
2021/12/01 09:33:17;;;;;;;0.60;0.43;;;13.80;99.90;;;13.89;56.08;98905.59;5024175;27;97304;-42
2021/12/01 09:35:44;;;;;;;0.50;0.40;;;13.80;99.90;;;13.96;55.26;98904.13;5024966;27;97587;-42
2021/12/01 09:38:13;;;;;;;1.03;0.50;;;13.70;99.90;;;14.12;55.03;98898.47;5007991;27;97535;-40
2021/12/01 09:40:46;;;;;;;0.70;0.50;;;13.90;99.90;;;14.08;55.51;98903.19;5014828;27;97772;-40
2021/12/01 09:43:14;;;;;;;0.40;0.37;;;13.90;99.90;;;13.93;56.34;98897.25;5010906;27;98126;-41
2021/12/01 09:45:41;;;;;;;0.77;0.40;;;13.80;99.90;;;13.98;56.22;98894.25;5012900;27;99841;-40
2021/12/01 09:48:07;;;;;;;0.93;0.40;;;13.80;99.90;;;13.99;55.76;98894.13;5008251;27;99062;-45
2021/12/01 09:50:34;;;;;;;0.97;0.37;;;13.80;99.90;;;13.92;56.05;98884.97;5028731;27;96806;-40
2021/12/01 09:53:00;;;;;;;1.27;0.40;;;13.80;99.90;;;13.97;55.82;98890.75;5012754;27;97150;-40
2021/12/01 09:55:26;;;;;;;0.67;0.40;;;13.80;99.90;;;13.86;56.57;98888.09;5010956;27;98064;-41
2021/12/01 09:58:06;;;;;;;0.57;0.40;;;13.70;99.90;;;13.74;57.58;98883.72;5005700;27;99122;-45
2021/12/01 10:00:36;;;;;;;2.10;1.47;;;13.60;99.90;;;13.76;56.26;98871.22;5025297;27;97096;-41
2021/12/01 10:03:04;;;;;;;3.53;1.90;;;13.60;99.90;;;13.78;55.87;98874.59;5030313;27;97781;-41
2021/12/01 10:09:01;;;;;;;1.17;0.67;;;13.70;99.90;;;13.72;57.14;98864.44;5007579;27;97089;-43
2021/12/01 10:11:33;;;;;;;0.50;0.47;;;13.60;99.90;;;13.68;57.29;98860.34;5021140;27;97609;-41
2021/12/01 10:14:19;;;;;;;0.40;0.30;;;13.50;99.90;;;13.86;56.13;98845.69;5016293;27;97412;-40
2021/12/01 10:16:46;;;;;;;0.57;0.33;;;13.70;99.90;;;13.98;55.46;98834.13;5005061;27;101635;-42
2021/12/01 10:19:16;;;;;;;0.70;0.50;;;13.80;99.90;;;14.05;55.18;98844.28;4995171;27;98494;-41
2021/12/01 10:21:47;;;;;;;0.47;0.30;;;13.90;99.90;;;13.96;56.67;98841.38;5015672;27;103803;-43
2021/12/01 10:24:20;;;;;;;1.40;0.80;;;13.90;99.90;;;14.09;55.32;98835.09;5002169;27;96993;-42
2021/12/01 10:26:53;;;;;;;0.53;0.40;;;13.90;99.90;;;14.19;55.71;98830.78;5030415;27;99393;-41